Time;durP1;ratioP1;P1;durP2;ratioP2;P2;SDS_P1;SDS_P2;PMS_P1;PMS_P2;Temp;Humidity;BMP_temperature;BMP_pressure;BME280_temperature;BME280_humidity;BME280_pressure;Samples;Min_cycle;Max_cycle;Signal;HPM_P1;HPM_P2
2023/06/16 00:01:31;;;;;;;8.68;6.45;;;;;;;;;;4918141;28;20035;-79
2023/06/16 00:03:57;;;;;;;8.23;6.37;;;;;;;;;;4918380;28;20128;-81
2023/06/16 00:06:27;;;;;;;9.57;7.07;;;;;;;;;;4931258;28;20046;-80
2023/06/16 00:08:54;;;;;;;8.55;6.75;;;;;;;;;;4912330;28;20526;-80
2023/06/16 00:11:20;;;;;;;11.82;6.47;;;;;;;;;;4917855;28;20063;-79
2023/06/16 00:13:47;;;;;;;9.45;6.22;;;;;;;;;;4914849;28;20047;-80
2023/06/16 00:16:13;;;;;;;9.30;6.40;;;;;;;;;;4906549;28;20531;-79
2023/06/16 00:18:43;;;;;;;8.55;6.00;;;;;;;;;;4916060;29;20035;-79
2023/06/16 00:21:14;;;;;;;11.43;6.68;;;;;;;;;;4896950;28;20513;-78
2023/06/16 00:23:40;;;;;;;9.80;6.57;;;;;;;;;;4915381;28;20107;-80
2023/06/16 00:26:06;;;;;;;9.40;6.10;;;;;;;;;;4908469;29;20039;-79
2023/06/16 00:28:32;;;;;;;10.23;6.45;;;;;;;;;;4931072;28;20094;-79
2023/06/16 00:30:59;;;;;;;10.70;6.30;;;;;;;;;;4912890;28;20039;-79
2023/06/16 00:33:24;;;;;;;9.32;6.22;;;;;;;;;;4931139;28;20183;-79
2023/06/16 00:35:50;;;;;;;12.20;6.50;;;;;;;;;;4912462;28;20055;-79
2023/06/16 00:38:15;;;;;;;8.40;6.25;;;;;;;;;;4903749;28;20560;-79
2023/06/16 00:40:41;;;;;;;10.23;6.35;;;;;;;;;;4914106;28;20027;-80
2023/06/16 00:43:06;;;;;;;8.10;6.03;;;;;;;;;;4920143;29;20039;-80
2023/06/16 00:45:31;;;;;;;9.38;6.45;;;;;;;;;;4903495;28;20093;-79
2023/06/16 00:47:58;;;;;;;9.23;6.57;;;;;;;;;;4917475;28;20036;-80
2023/06/16 00:50:23;;;;;;;9.73;6.63;;;;;;;;;;4916191;28;20046;-79
2023/06/16 00:52:49;;;;;;;11.45;7.30;;;;;;;;;;4913974;28;20040;-80
2023/06/16 00:55:15;;;;;;;10.43;7.68;;;;;;;;;;4931634;28;20374;-78
2023/06/16 00:57:43;;;;;;;8.68;6.50;;;;;;;;;;4933504;28;20113;-79
2023/06/16 01:00:11;;;;;;;10.98;7.50;;;;;;;;;;4917168;28;20054;-81
2023/06/16 01:02:38;;;;;;;9.90;7.10;;;;;;;;;;4915899;29;20132;-79
2023/06/16 01:05:06;;;;;;;9.57;7.63;;;;;;;;;;4902395;28;20039;-80
2023/06/16 01:07:36;;;;;;;13.15;7.75;;;;;;;;;;4910521;28;20506;-80
2023/06/16 01:10:13;;;;;;;10.07;7.07;;;;;;;;;;4911199;28;20567;-79
2023/06/16 01:12:45;;;;;;;9.18;6.60;;;;;;;;;;4918108;28;20043;-82
2023/06/16 01:15:14;;;;;;;10.02;7.35;;;;;;;;;;4932709;28;20040;-81
2023/06/16 01:17:45;;;;;;;8.55;6.75;;;;;;;;;;4930865;28;20542;-80
2023/06/16 01:20:29;;;;;;;10.07;6.82;;;;;;;;;;4907424;28;20059;-80
2023/06/16 01:23:14;;;;;;;8.57;6.70;;;;;;;;;;4909491;29;20529;-78
2023/06/16 01:25:43;;;;;;;9.50;6.70;;;;;;;;;;4934453;28;20039;-79
2023/06/16 01:28:12;;;;;;;9.98;6.47;;;;;;;;;;4910745;29;20075;-80
2023/06/16 01:30:44;;;;;;;9.50;6.70;;;;;;;;;;4920344;28;20039;-79
2023/06/16 01:33:11;;;;;;;9.00;6.50;;;;;;;;;;4933075;28;20519;-82
2023/06/16 01:35:40;;;;;;;8.50;6.27;;;;;;;;;;4924560;29;20484;-79
2023/06/16 01:38:06;;;;;;;9.02;6.47;;;;;;;;;;4935166;29;20832;-81
2023/06/16 01:40:33;;;;;;;10.40;6.47;;;;;;;;;;4920420;28;20031;-79
2023/06/16 01:42:59;;;;;;;11.02;6.43;;;;;;;;;;4914558;28;20043;-79
2023/06/16 01:45:25;;;;;;;9.25;5.90;;;;;;;;;;4917383;28;20043;-78
2023/06/16 01:47:50;;;;;;;10.20;6.28;;;;;;;;;;4934782;28;20035;-78
2023/06/16 01:50:16;;;;;;;10.18;5.82;;;;;;;;;;4920590;28;20055;-79
2023/06/16 01:52:41;;;;;;;9.75;6.20;;;;;;;;;;4937530;28;20055;-79
2023/06/16 01:55:07;;;;;;;10.38;6.82;;;;;;;;;;4914033;29;20039;-80
2023/06/16 01:57:35;;;;;;;8.10;6.18;;;;;;;;;;4937735;28;20566;-78
2023/06/16 02:00:14;;;;;;;9.27;6.55;;;;;;;;;;4935111;28;20044;-78
2023/06/16 02:02:44;;;;;;;8.82;6.35;;;;;;;;;;4920125;29;20044;-80
2023/06/16 02:05:11;;;;;;;11.80;6.85;;;;;;;;;;4936713;28;20051;-79
2023/06/16 02:07:41;;;;;;;10.43;6.68;;;;;;;;;;4899804;29;20063;-79
2023/06/16 02:10:07;;;;;;;10.25;6.75;;;;;;;;;;4914607;29;20147;-79
2023/06/16 02:12:33;;;;;;;9.63;6.35;;;;;;;;;;4936186;28;20035;-80
2023/06/16 02:14:58;;;;;;;11.77;6.88;;;;;;;;;;4915827;28;20036;-80
2023/06/16 02:17:26;;;;;;;12.32;7.10;;;;;;;;;;4914839;29;20036;-79
2023/06/16 02:19:54;;;;;;;11.02;7.32;;;;;;;;;;4933754;28;20039;-80
2023/06/16 02:22:21;;;;;;;11.10;7.25;;;;;;;;;;4921403;28;20040;-81
2023/06/16 02:24:49;;;;;;;11.88;7.97;;;;;;;;;;4918993;28;20023;-79
2023/06/16 02:27:15;;;;;;;12.55;8.02;;;;;;;;;;4921391;28;20496;-80
2023/06/16 02:29:41;;;;;;;10.38;7.53;;;;;;;;;;4921011;28;20036;-80
2023/06/16 02:32:07;;;;;;;10.48;7.18;;;;;;;;;;4923496;28;20091;-80
2023/06/16 02:34:33;;;;;;;10.00;7.35;;;;;;;;;;4920587;28;20063;-80
2023/06/16 02:36:58;;;;;;;9.60;6.68;;;;;;;;;;4917679;28;20495;-80
2023/06/16 02:39:24;;;;;;;9.57;7.13;;;;;;;;;;4925612;28;20039;-80
2023/06/16 02:41:49;;;;;;;11.07;7.90;;;;;;;;;;4932455;28;20032;-80
2023/06/16 02:44:15;;;;;;;10.90;6.97;;;;;;;;;;4909713;28;20787;-79
2023/06/16 02:46:40;;;;;;;10.50;7.30;;;;;;;;;;4934071;28;20107;-80
2023/06/16 02:49:06;;;;;;;11.45;7.45;;;;;;;;;;4916169;29;20171;-81
2023/06/16 02:51:31;;;;;;;11.30;7.28;;;;;;;;;;4909938;28;20047;-80
2023/06/16 02:53:59;;;;;;;9.93;7.45;;;;;;;;;;4932485;28;20544;-79
2023/06/16 02:56:24;;;;;;;;;;;;;;;;;;4918657;28;20039;-79
2023/06/16 02:58:50;;;;;;;10.38;6.65;;;;;;;;;;4933342;28;19919;-80
2023/06/16 03:01:15;;;;;;;9.68;6.93;;;;;;;;;;4932653;28;20127;-82
2023/06/16 03:03:41;;;;;;;11.13;7.03;;;;;;;;;;4918259;28;20050;-82
2023/06/16 03:06:08;;;;;;;9.73;6.93;;;;;;;;;;4934372;28;20404;-81
2023/06/16 03:08:34;;;;;;;8.80;6.35;;;;;;;;;;4905530;28;20190;-80
2023/06/16 03:10:59;;;;;;;10.98;7.50;;;;;;;;;;4914927;28;20134;-80
2023/06/16 03:13:25;;;;;;;10.43;6.45;;;;;;;;;;4917175;28;20046;-80
2023/06/16 03:15:52;;;;;;;8.50;5.80;;;;;;;;;;4924714;28;20105;-79
2023/06/16 03:18:17;;;;;;;8.93;6.47;;;;;;;;;;4916955;28;20490;-80
2023/06/16 03:20:45;;;;;;;9.80;6.03;;;;;;;;;;4913595;28;20039;-81
2023/06/16 03:23:11;;;;;;;;;;;;;;;;;;4935182;28;20080;-80
2023/06/16 03:25:37;;;;;;;8.65;6.05;;;;;;;;;;4933540;28;20274;-80
2023/06/16 03:28:03;;;;;;;8.73;6.10;;;;;;;;;;4918790;28;20036;-80
2023/06/16 03:30:31;;;;;;;9.52;6.50;;;;;;;;;;4907855;28;20183;-80
2023/06/16 03:32:57;;;;;;;9.73;5.88;;;;;;;;;;4895829;29;20111;-79
2023/06/16 03:35:22;;;;;;;9.98;5.90;;;;;;;;;;4917302;28;20131;-80
2023/06/16 03:37:47;;;;;;;9.48;6.20;;;;;;;;;;4916779;28;20602;-80
2023/06/16 03:40:14;;;;;;;10.55;6.15;;;;;;;;;;4915614;29;20127;-79
2023/06/16 03:42:39;;;;;;;7.97;6.00;;;;;;;;;;4918911;28;20118;-86
2023/06/16 03:45:06;;;;;;;9.50;6.32;;;;;;;;;;4920243;29;20512;-85
2023/06/16 03:47:31;;;;;;;7.95;6.05;;;;;;;;;;4916885;28;20500;-85
2023/06/16 03:49:58;;;;;;;7.95;6.00;;;;;;;;;;4934036;28;20038;-85
2023/06/16 03:52:23;;;;;;;9.30;6.67;;;;;;;;;;4911663;29;20035;-86
2023/06/16 03:54:49;;;;;;;12.68;6.28;;;;;;;;;;4910337;28;20119;-86
2023/06/16 03:57:15;;;;;;;9.32;6.10;;;;;;;;;;4919103;28;20475;-86
2023/06/16 03:59:40;;;;;;;8.70;6.55;;;;;;;;;;4913840;28;20047;-85
2023/06/16 04:02:08;;;;;;;9.00;6.45;;;;;;;;;;4933038;28;20044;-89
2023/06/16 04:04:35;;;;;;;8.88;5.82;;;;;;;;;;4917814;28;20039;-88
2023/06/16 04:07:01;;;;;;;10.68;6.57;;;;;;;;;;4895362;29;20040;-88
2023/06/16 04:09:27;;;;;;;9.02;6.75;;;;;;;;;;4917890;28;20071;-88
2023/06/16 04:12:00;;;;;;;10.05;7.05;;;;;;;;;;4914066;28;20111;-86
2023/06/16 04:14:25;;;;;;;9.27;6.28;;;;;;;;;;4903489;28;20043;-87
2023/06/16 04:16:51;;;;;;;9.18;6.05;;;;;;;;;;4931786;28;20469;-88
2023/06/16 04:19:19;;;;;;;9.82;6.07;;;;;;;;;;4933479;28;20551;-87
2023/06/16 04:21:48;;;;;;;8.65;6.10;;;;;;;;;;4918972;28;20373;-86
2023/06/16 04:24:14;;;;;;;9.10;6.95;;;;;;;;;;4918958;28;20039;-83
2023/06/16 04:26:43;;;;;;;8.30;6.35;;;;;;;;;;4917877;28;20043;-85
2023/06/16 04:29:09;;;;;;;9.00;6.53;;;;;;;;;;4902172;29;20042;-85
2023/06/16 04:31:45;;;;;;;8.75;6.43;;;;;;;;;;4911051;29;20035;-84
2023/06/16 04:34:10;;;;;;;10.02;6.60;;;;;;;;;;4919280;28;20039;-84
2023/06/16 04:36:44;;;;;;;8.35;6.40;;;;;;;;;;4914813;29;20046;-85
2023/06/16 04:39:14;;;;;;;10.30;6.57;;;;;;;;;;4933791;28;20039;-86
2023/06/16 04:41:42;;;;;;;8.38;6.00;;;;;;;;;;4928192;28;20040;-86
2023/06/16 04:44:08;;;;;;;9.63;6.32;;;;;;;;;;4921439;29;20039;-85
2023/06/16 04:46:34;;;;;;;8.38;6.28;;;;;;;;;;4911545;29;20043;-86
2023/06/16 04:49:05;;;;;;;8.27;6.35;;;;;;;;;;4931827;28;20043;-79
2023/06/16 04:51:30;;;;;;;7.05;5.70;;;;;;;;;;4917934;28;20548;-79
2023/06/16 04:53:56;;;;;;;8.50;6.20;;;;;;;;;;4931042;28;20114;-78
2023/06/16 04:56:22;;;;;;;9.90;6.25;;;;;;;;;;4922025;28;20043;-79
2023/06/16 04:58:47;;;;;;;9.93;6.60;;;;;;;;;;4931237;28;20055;-78
2023/06/16 05:01:13;;;;;;;7.72;5.88;;;;;;;;;;4919783;28;20454;-78
2023/06/16 05:03:38;;;;;;;8.50;6.07;;;;;;;;;;4908002;29;20083;-79
2023/06/16 05:06:06;;;;;;;8.25;5.82;;;;;;;;;;4906030;29;20040;-79
2023/06/16 05:08:32;;;;;;;8.43;5.78;;;;;;;;;;4914844;28;20035;-79
2023/06/16 05:11:01;;;;;;;8.60;5.95;;;;;;;;;;4932175;28;20058;-79
2023/06/16 05:13:27;;;;;;;8.88;5.70;;;;;;;;;;4924664;28;20073;-78
2023/06/16 05:16:00;;;;;;;7.53;5.30;;;;;;;;;;4912965;28;20119;-81
2023/06/16 05:18:26;;;;;;;9.50;6.07;;;;;;;;;;4914020;28;20122;-80
2023/06/16 05:20:51;;;;;;;8.05;5.30;;;;;;;;;;4917257;28;20438;-79
2023/06/16 05:23:19;;;;;;;7.45;5.38;;;;;;;;;;4917068;28;20054;-78
2023/06/16 05:25:45;;;;;;;7.63;5.55;;;;;;;;;;4918507;28;20043;-79
2023/06/16 05:28:10;;;;;;;7.72;5.53;;;;;;;;;;4930389;28;20039;-79
2023/06/16 05:30:36;;;;;;;7.88;5.50;;;;;;;;;;4930916;28;20059;-79
2023/06/16 05:33:01;;;;;;;9.15;5.97;;;;;;;;;;4917237;28;20043;-78
2023/06/16 05:35:27;;;;;;;7.68;5.53;;;;;;;;;;4931766;28;20094;-80
2023/06/16 05:37:52;;;;;;;9.35;5.90;;;;;;;;;;4918732;28;20035;-78
2023/06/16 05:40:20;;;;;;;10.40;5.95;;;;;;;;;;4915237;28;20035;-78
2023/06/16 05:42:46;;;;;;;9.63;6.10;;;;;;;;;;4914459;28;20083;-79
2023/06/16 05:45:11;;;;;;;9.30;6.45;;;;;;;;;;4915018;28;20083;-79
2023/06/16 05:47:39;;;;;;;8.55;5.60;;;;;;;;;;4933158;28;20371;-78
2023/06/16 05:50:05;;;;;;;8.52;5.53;;;;;;;;;;4912190;29;20052;-78
2023/06/16 05:52:31;;;;;;;9.68;6.00;;;;;;;;;;4917991;28;20672;-78
2023/06/16 05:54:57;;;;;;;7.43;5.75;;;;;;;;;;4915360;28;20035;-83
2023/06/16 05:57:22;;;;;;;7.25;5.13;;;;;;;;;;4904342;28;20042;-83
2023/06/16 05:59:48;;;;;;;7.63;5.40;;;;;;;;;;4906817;28;20048;-82
2023/06/16 06:02:18;;;;;;;7.75;5.75;;;;;;;;;;4932464;28;20043;-83
2023/06/16 06:04:43;;;;;;;7.80;5.30;;;;;;;;;;4916181;28;20055;-83
2023/06/16 06:07:08;;;;;;;8.30;4.95;;;;;;;;;;4930021;29;20043;-86
2023/06/16 06:09:47;;;;;;;6.28;4.70;;;;;;;;;;4923341;28;20603;-84
2023/06/16 06:12:12;;;;;;;8.20;4.63;;;;;;;;;;4911723;28;20194;-84
2023/06/16 06:14:38;;;;;;;6.45;4.68;;;;;;;;;;4904112;28;20490;-82
2023/06/16 06:17:04;;;;;;;6.20;3.97;;;;;;;;;;4914179;28;20032;-83
2023/06/16 06:19:29;;;;;;;5.72;3.88;;;;;;;;;;4924558;28;20040;-83
2023/06/16 06:21:55;;;;;;;4.70;3.40;;;;;;;;;;4915000;28;20488;-83
2023/06/16 06:24:21;;;;;;;5.30;4.00;;;;;;;;;;4922422;28;20046;-81
2023/06/16 06:26:46;;;;;;;6.80;3.95;;;;;;;;;;4935446;28;20032;-81
2023/06/16 06:29:13;;;;;;;7.05;4.20;;;;;;;;;;4908504;28;20035;-82
2023/06/16 06:31:38;;;;;;;5.65;3.83;;;;;;;;;;4926049;28;20483;-82
2023/06/16 06:34:04;;;;;;;5.40;3.95;;;;;;;;;;4921435;28;20063;-82
2023/06/16 06:36:29;;;;;;;5.85;4.03;;;;;;;;;;4909985;29;20485;-82
2023/06/16 06:39:00;;;;;;;5.72;4.32;;;;;;;;;;4913204;28;20142;-82
2023/06/16 06:41:26;;;;;;;5.50;4.25;;;;;;;;;;4915429;28;20098;-82
2023/06/16 06:43:52;;;;;;;6.65;4.30;;;;;;;;;;4932580;28;20123;-82
2023/06/16 06:46:18;;;;;;;6.47;4.05;;;;;;;;;;4912676;28;20043;-82
2023/06/16 06:48:44;;;;;;;7.00;4.05;;;;;;;;;;4913167;28;20673;-81
2023/06/16 06:51:10;;;;;;;6.18;4.13;;;;;;;;;;4933884;28;20086;-83
2023/06/16 06:53:36;;;;;;;8.38;4.70;;;;;;;;;;4934451;28;20557;-82
2023/06/16 06:56:01;;;;;;;7.57;5.15;;;;;;;;;;4904149;28;20039;-83
2023/06/16 06:58:26;;;;;;;7.05;4.88;;;;;;;;;;4908042;29;20127;-82
2023/06/16 07:00:52;;;;;;;9.00;5.57;;;;;;;;;;4932905;28;20051;-83
2023/06/16 07:03:17;;;;;;;7.93;6.07;;;;;;;;;;4917127;28;20051;-83
2023/06/16 07:05:43;;;;;;;9.00;6.32;;;;;;;;;;4916743;28;20082;-83
2023/06/16 07:08:08;;;;;;;7.40;5.68;;;;;;;;;;4905089;29;20043;-83
2023/06/16 07:10:36;;;;;;;7.80;5.72;;;;;;;;;;4923611;28;20042;-83
2023/06/16 07:13:01;;;;;;;;;;;;;;;;;;4898240;28;20110;-83
2023/06/16 07:15:27;;;;;;;8.40;6.13;;;;;;;;;;4920414;28;19922;-83
2023/06/16 07:17:52;;;;;;;8.10;5.53;;;;;;;;;;4916703;28;20040;-82
2023/06/16 07:20:18;;;;;;;7.78;5.88;;;;;;;;;;4916907;28;20123;-82
2023/06/16 07:22:45;;;;;;;7.85;5.53;;;;;;;;;;4933688;28;20046;-82
2023/06/16 07:25:11;;;;;;;7.15;5.32;;;;;;;;;;4927539;28;20082;-82
2023/06/16 07:27:36;;;;;;;7.50;5.05;;;;;;;;;;4920503;29;20039;-83
2023/06/16 07:30:04;;;;;;;8.00;5.38;;;;;;;;;;4932259;28;20041;-83
2023/06/16 07:32:30;;;;;;;9.50;5.82;;;;;;;;;;4912092;28;20126;-82
2023/06/16 07:34:55;;;;;;;7.68;5.85;;;;;;;;;;4915151;28;20126;-83
2023/06/16 07:37:21;;;;;;;8.02;6.05;;;;;;;;;;4921202;28;20039;-83
2023/06/16 07:39:46;;;;;;;9.15;6.78;;;;;;;;;;4920319;28;20090;-82
2023/06/16 07:42:11;;;;;;;9.50;6.88;;;;;;;;;;4905444;29;20501;-83
2023/06/16 07:44:40;;;;;;;11.15;7.90;;;;;;;;;;4914225;29;20036;-83
2023/06/16 07:47:06;;;;;;;11.30;7.70;;;;;;;;;;4912395;29;20114;-83
2023/06/16 07:49:31;;;;;;;12.13;8.75;;;;;;;;;;4915733;28;20126;-85
2023/06/16 07:51:56;;;;;;;10.73;8.38;;;;;;;;;;4907474;28;20115;-83
2023/06/16 07:54:22;;;;;;;10.75;8.82;;;;;;;;;;4904464;28;20078;-83
2023/06/16 07:56:51;;;;;;;11.82;9.32;;;;;;;;;;4932712;28;20133;-83
2023/06/16 07:59:16;;;;;;;10.82;8.45;;;;;;;;;;4925901;28;20054;-83
2023/06/16 08:01:44;;;;;;;14.73;10.82;;;;;;;;;;4898594;28;20040;-83
2023/06/16 08:04:10;;;;;;;12.50;9.25;;;;;;;;;;4915933;29;20054;-83
2023/06/16 08:06:36;;;;;;;14.05;10.73;;;;;;;;;;4918737;29;20488;-83
2023/06/16 08:09:01;;;;;;;11.50;9.30;;;;;;;;;;4918835;29;20099;-84
2023/06/16 08:11:27;;;;;;;12.07;9.30;;;;;;;;;;4914880;28;20040;-83
2023/06/16 08:13:53;;;;;;;12.50;9.88;;;;;;;;;;4920591;28;20439;-84
2023/06/16 08:16:18;;;;;;;11.23;8.68;;;;;;;;;;4917905;28;20046;-84
2023/06/16 08:18:44;;;;;;;11.70;8.45;;;;;;;;;;4913080;28;20071;-84
2023/06/16 08:21:15;;;;;;;10.23;7.72;;;;;;;;;;4916518;29;20035;-83
2023/06/16 08:23:41;;;;;;;11.88;8.70;;;;;;;;;;4916761;28;20487;-84
2023/06/16 08:26:06;;;;;;;12.57;9.40;;;;;;;;;;4906557;29;20119;-84
2023/06/16 08:28:31;;;;;;;10.13;7.28;;;;;;;;;;4919221;28;20036;-84
2023/06/16 08:30:57;;;;;;;10.95;7.35;;;;;;;;;;4934047;28;20032;-85
2023/06/16 08:33:24;;;;;;;9.52;7.10;;;;;;;;;;4907308;28;20039;-84
2023/06/16 08:35:50;;;;;;;10.23;6.73;;;;;;;;;;4901448;28;20078;-85
2023/06/16 08:38:16;;;;;;;9.13;6.35;;;;;;;;;;4908654;28;20282;-85
2023/06/16 08:40:41;;;;;;;9.93;6.50;;;;;;;;;;4932360;28;20040;-84
2023/06/16 08:43:08;;;;;;;8.43;5.15;;;;;;;;;;4905571;28;20044;-84
2023/06/16 08:45:35;;;;;;;9.80;5.57;;;;;;;;;;4889339;28;20565;-83
2023/06/16 08:48:00;;;;;;;8.27;5.20;;;;;;;;;;4915637;28;20875;-83
2023/06/16 08:50:29;;;;;;;6.85;4.60;;;;;;;;;;4908133;28;20142;-84
2023/06/16 08:52:57;;;;;;;8.40;4.28;;;;;;;;;;4913317;28;20036;-82
2023/06/16 08:55:23;;;;;;;6.43;4.00;;;;;;;;;;4917897;28;20074;-82
2023/06/16 08:57:53;;;;;;;8.27;4.30;;;;;;;;;;4899872;28;20049;-83
2023/06/16 09:00:19;;;;;;;7.10;4.38;;;;;;;;;;4930930;28;20048;-83
2023/06/16 09:02:48;;;;;;;6.88;4.97;;;;;;;;;;4909927;28;20063;-83
2023/06/16 09:05:15;;;;;;;6.55;4.85;;;;;;;;;;4902536;28;20067;-83
2023/06/16 09:07:41;;;;;;;9.00;5.55;;;;;;;;;;4907514;28;20035;-83
2023/06/16 09:10:07;;;;;;;8.60;5.90;;;;;;;;;;4904089;29;20130;-83
2023/06/16 09:12:38;;;;;;;8.50;5.28;;;;;;;;;;4905947;28;20043;-82
2023/06/16 09:15:08;;;;;;;7.85;5.25;;;;;;;;;;4919786;28;20041;-82
2023/06/16 09:17:34;;;;;;;8.60;5.70;;;;;;;;;;4918625;28;20035;-83
2023/06/16 09:20:01;;;;;;;7.85;5.53;;;;;;;;;;4903720;29;20061;-83
2023/06/16 09:22:28;;;;;;;8.13;5.13;;;;;;;;;;4916466;29;20400;-82
2023/06/16 09:24:57;;;;;;;7.35;5.30;;;;;;;;;;4930254;28;20399;-82
2023/06/16 09:27:45;;;;;;;7.22;5.13;;;;;;;;;;4919647;28;20042;-82
2023/06/16 09:30:16;;;;;;;7.15;4.32;;;;;;;;;;4931241;28;20400;-82
2023/06/16 09:32:42;;;;;;;6.13;4.18;;;;;;;;;;4919324;28;20098;-82
2023/06/16 09:35:21;;;;;;;5.53;4.05;;;;;;;;;;4931304;28;20448;-83
2023/06/16 09:37:50;;;;;;;6.03;3.92;;;;;;;;;;4897636;29;20493;-81
2023/06/16 09:40:18;;;;;;;5.70;3.67;;;;;;;;;;4901492;28;20401;-82
2023/06/16 09:42:45;;;;;;;6.28;3.80;;;;;;;;;;4900841;28;20047;-82
2023/06/16 09:45:15;;;;;;;;;;;;;;;;;;4907354;28;20048;-81
2023/06/16 09:47:44;;;;;;;5.38;3.22;;;;;;;;;;4916175;29;19925;-82
2023/06/16 09:50:17;;;;;;;5.05;3.20;;;;;;;;;;4916417;29;20054;-82
2023/06/16 09:52:45;;;;;;;5.30;3.42;;;;;;;;;;4918437;28;20036;-82
2023/06/16 09:55:14;;;;;;;4.35;3.08;;;;;;;;;;4934568;28;20066;-82
2023/06/16 09:57:42;;;;;;;6.38;3.50;;;;;;;;;;4917287;29;20061;-82
2023/06/16 10:00:13;;;;;;;5.22;3.20;;;;;;;;;;4912598;29;20052;-82
2023/06/16 10:02:40;;;;;;;6.03;3.35;;;;;;;;;;4920755;29;20078;-82
2023/06/16 10:05:09;;;;;;;5.63;3.65;;;;;;;;;;4915374;29;20119;-81
2023/06/16 10:07:36;;;;;;;5.03;3.40;;;;;;;;;;4929842;28;20028;-82
2023/06/16 10:10:02;;;;;;;5.63;3.58;;;;;;;;;;4921178;28;20043;-83
2023/06/16 10:12:28;;;;;;;6.25;3.67;;;;;;;;;;4909702;28;20446;-82
2023/06/16 10:14:55;;;;;;;4.90;3.08;;;;;;;;;;4920601;28;20051;-83
2023/06/16 10:17:21;;;;;;;6.75;3.65;;;;;;;;;;4920813;28;20047;-83
2023/06/16 10:19:49;;;;;;;5.18;3.50;;;;;;;;;;4909649;28;20039;-82
2023/06/16 10:22:17;;;;;;;6.07;3.70;;;;;;;;;;4920227;28;20098;-82
2023/06/16 10:24:42;;;;;;;5.95;3.63;;;;;;;;;;4916022;28;20391;-82
2023/06/16 10:27:08;;;;;;;5.68;3.30;;;;;;;;;;4920459;29;20043;-83
2023/06/16 10:29:35;;;;;;;5.40;3.22;;;;;;;;;;4922836;28;20491;-83
2023/06/16 10:32:10;;;;;;;6.47;3.15;;;;;;;;;;4929264;28;20044;-83
2023/06/16 10:34:46;;;;;;;5.88;3.00;;;;;;;;;;4920305;29;20107;-83
2023/06/16 10:37:21;;;;;;;7.32;3.47;;;;;;;;;;4917584;28;20118;-83
2023/06/16 10:39:47;;;;;;;5.60;3.47;;;;;;;;;;4921830;28;20043;-83
2023/06/16 10:42:16;;;;;;;5.70;3.40;;;;;;;;;;4905566;28;20102;-82
2023/06/16 10:44:43;;;;;;;5.70;2.78;;;;;;;;;;4936065;28;20115;-83
2023/06/16 10:47:08;;;;;;;5.80;3.20;;;;;;;;;;4919113;29;20107;-83
2023/06/16 10:49:45;;;;;;;5.68;3.38;;;;;;;;;;4933511;28;20479;-83
2023/06/16 10:52:18;;;;;;;5.57;3.17;;;;;;;;;;4922293;29;20470;-83
2023/06/16 10:54:48;;;;;;;5.57;3.25;;;;;;;;;;4918201;28;20474;-83
2023/06/16 10:57:14;;;;;;;6.90;2.90;;;;;;;;;;4919942;28;20480;-82
2023/06/16 11:00:10;;;;;;;5.43;3.00;;;;;;;;;;4934040;28;20470;-83
2023/06/16 11:02:37;;;;;;;5.32;3.13;;;;;;;;;;4909386;29;20428;-83
2023/06/16 11:05:11;;;;;;;5.25;3.30;;;;;;;;;;4923942;28;20071;-83
2023/06/16 11:08:05;;;;;;;4.78;3.13;;;;;;;;;;4935798;28;20562;-83
2023/06/16 11:10:31;;;;;;;5.25;3.10;;;;;;;;;;4932839;28;20055;-82
2023/06/16 11:12:57;;;;;;;5.30;3.35;;;;;;;;;;4920385;28;20061;-80
2023/06/16 11:15:23;;;;;;;4.90;2.97;;;;;;;;;;4917270;28;20046;-80
2023/06/16 11:17:48;;;;;;;5.05;3.10;;;;;;;;;;4922965;28;20044;-80
2023/06/16 11:20:14;;;;;;;5.53;3.30;;;;;;;;;;4918524;28;20040;-79
2023/06/16 11:22:40;;;;;;;6.30;3.58;;;;;;;;;;4919489;29;20040;-80
2023/06/16 11:25:06;;;;;;;6.00;3.70;;;;;;;;;;4920913;29;20055;-79
2023/06/16 11:27:31;;;;;;;5.55;3.25;;;;;;;;;;4913566;28;20050;-80
2023/06/16 11:30:03;;;;;;;5.15;3.20;;;;;;;;;;4915363;28;20039;-80
2023/06/16 11:32:34;;;;;;;5.55;3.63;;;;;;;;;;4929004;28;20042;-79
2023/06/16 11:35:04;;;;;;;5.40;3.58;;;;;;;;;;4921686;28;20040;-79
2023/06/16 11:37:39;;;;;;;5.40;3.55;;;;;;;;;;4902722;29;20044;-82
2023/06/16 11:40:08;;;;;;;6.07;3.75;;;;;;;;;;4924697;28;20048;-81
2023/06/16 11:42:34;;;;;;;6.15;3.80;;;;;;;;;;4916786;28;20043;-82
2023/06/16 11:45:00;;;;;;;6.38;3.60;;;;;;;;;;4915636;28;20056;-82
2023/06/16 11:47:25;;;;;;;5.15;3.42;;;;;;;;;;4917562;28;20583;-82
2023/06/16 11:49:51;;;;;;;5.72;3.22;;;;;;;;;;4934629;28;20508;-82
2023/06/16 11:52:17;;;;;;;6.05;3.50;;;;;;;;;;4915363;28;20035;-82
2023/06/16 11:54:42;;;;;;;6.68;3.45;;;;;;;;;;4916508;29;20043;-81
2023/06/16 11:57:08;;;;;;;5.10;3.47;;;;;;;;;;4933644;28;20054;-82
2023/06/16 11:59:33;;;;;;;6.35;3.65;;;;;;;;;;4926196;28;20047;-82
2023/06/16 12:02:03;;;;;;;4.88;3.15;;;;;;;;;;4903892;28;20119;-83
2023/06/16 12:04:31;;;;;;;7.20;3.28;;;;;;;;;;4934930;28;20047;-82
2023/06/16 12:06:56;;;;;;;4.85;2.83;;;;;;;;;;4920209;28;20039;-81
2023/06/16 12:09:24;;;;;;;3.90;2.53;;;;;;;;;;4916384;28;20551;-82
2023/06/16 12:11:49;;;;;;;4.13;2.70;;;;;;;;;;4900459;28;20461;-82
2023/06/16 12:14:20;;;;;;;5.60;2.45;;;;;;;;;;4907564;29;20123;-82
2023/06/16 12:16:47;;;;;;;4.30;2.63;;;;;;;;;;4911753;28;20043;-83
2023/06/16 12:19:18;;;;;;;4.78;2.85;;;;;;;;;;4931585;28;20042;-81
2023/06/16 12:21:43;;;;;;;5.47;2.80;;;;;;;;;;4909830;28;20106;-83
2023/06/16 12:24:09;;;;;;;4.45;2.70;;;;;;;;;;4919652;29;20039;-83
2023/06/16 12:26:41;;;;;;;7.28;3.30;;;;;;;;;;4918062;28;20043;-82
2023/06/16 12:29:27;;;;;;;4.93;3.08;;;;;;;;;;4886298;29;20521;-83
2023/06/16 12:31:55;;;;;;;4.50;2.75;;;;;;;;;;4911489;28;20058;-82
2023/06/16 12:34:36;;;;;;;5.05;2.70;;;;;;;;;;4915760;28;20043;-82
2023/06/16 12:37:06;;;;;;;4.00;2.30;;;;;;;;;;4920779;28;20558;-82
2023/06/16 12:39:32;;;;;;;5.00;2.60;;;;;;;;;;4920450;28;20039;-82
2023/06/16 12:42:05;;;;;;;5.20;2.58;;;;;;;;;;4931490;28;20032;-81
2023/06/16 12:44:47;;;;;;;4.18;2.60;;;;;;;;;;4918847;28;20101;-81
2023/06/16 12:47:14;;;;;;;6.05;3.20;;;;;;;;;;4913951;28;20517;-82
2023/06/16 12:49:40;;;;;;;5.47;2.97;;;;;;;;;;4920970;28;20035;-82
2023/06/16 12:52:06;;;;;;;6.00;3.05;;;;;;;;;;4933163;28;20455;-81
2023/06/16 12:54:35;;;;;;;4.68;3.25;;;;;;;;;;4923609;28;20091;-81
2023/06/16 12:57:00;;;;;;;5.88;3.15;;;;;;;;;;4924285;28;20114;-82
2023/06/16 12:59:26;;;;;;;4.75;3.30;;;;;;;;;;4914579;28;20122;-80
2023/06/16 13:01:52;;;;;;;5.38;3.20;;;;;;;;;;4914191;28;20123;-83
2023/06/16 13:04:17;;;;;;;6.43;3.25;;;;;;;;;;4920110;28;20381;-83
2023/06/16 13:06:43;;;;;;;5.00;2.83;;;;;;;;;;4913597;28;20066;-81
2023/06/16 13:09:08;;;;;;;5.22;3.00;;;;;;;;;;4919875;29;20047;-81
2023/06/16 13:11:34;;;;;;;4.43;2.97;;;;;;;;;;4909288;28;20040;-80
2023/06/16 13:14:02;;;;;;;5.45;2.65;;;;;;;;;;4933098;28;20059;-81
2023/06/16 13:16:27;;;;;;;;;;;;;;;;;;4931655;28;20122;-82
2023/06/16 13:18:52;;;;;;;6.85;2.60;;;;;;;;;;4912542;28;20009;-83
2023/06/16 13:21:18;;;;;;;5.63;2.72;;;;;;;;;;4915252;28;20094;-79
2023/06/16 13:23:43;;;;;;;4.65;2.83;;;;;;;;;;4915977;28;20048;-77
2023/06/16 13:26:22;;;;;;;4.75;2.72;;;;;;;;;;4916248;28;20044;-77
2023/06/16 13:28:53;;;;;;;5.57;3.22;;;;;;;;;;4902382;29;20047;-77
2023/06/16 13:31:20;;;;;;;5.13;2.70;;;;;;;;;;4901147;28;20058;-77
2023/06/16 13:33:46;;;;;;;4.22;2.70;;;;;;;;;;4917131;28;20062;-78
2023/06/16 13:36:16;;;;;;;4.28;2.92;;;;;;;;;;4915636;29;20054;-76
2023/06/16 13:38:42;;;;;;;5.40;2.92;;;;;;;;;;4895465;29;20060;-77
2023/06/16 13:41:08;;;;;;;4.97;2.80;;;;;;;;;;4916091;29;20047;-76
2023/06/16 13:43:33;;;;;;;4.80;2.80;;;;;;;;;;4931416;28;20392;-76
2023/06/16 13:45:59;;;;;;;4.60;3.30;;;;;;;;;;4903988;28;20403;-76
2023/06/16 13:48:24;;;;;;;7.03;3.03;;;;;;;;;;4923425;28;20150;-77
2023/06/16 13:50:50;;;;;;;5.30;2.90;;;;;;;;;;4907881;28;20095;-76
2023/06/16 13:53:15;;;;;;;5.40;3.47;;;;;;;;;;4915475;28;20403;-78
2023/06/16 13:55:41;;;;;;;4.63;2.85;;;;;;;;;;4901305;29;20031;-77
2023/06/16 13:58:06;;;;;;;5.05;3.00;;;;;;;;;;4919538;29;20047;-77
2023/06/16 14:00:32;;;;;;;4.15;2.65;;;;;;;;;;4906465;28;20146;-77
2023/06/16 14:03:01;;;;;;;6.30;2.90;;;;;;;;;;4922553;28;20043;-77
2023/06/16 14:05:26;;;;;;;6.28;3.00;;;;;;;;;;4909538;28;20051;-76
2023/06/16 14:07:52;;;;;;;4.22;2.63;;;;;;;;;;4932832;28;20032;-77
2023/06/16 14:10:17;;;;;;;5.22;2.88;;;;;;;;;;4916846;28;20118;-77
2023/06/16 14:12:44;;;;;;;4.72;2.60;;;;;;;;;;4913380;28;20055;-79
2023/06/16 14:15:16;;;;;;;4.43;2.65;;;;;;;;;;4914536;29;20098;-79
2023/06/16 14:17:44;;;;;;;4.68;2.53;;;;;;;;;;4913620;29;20050;-78
2023/06/16 14:20:11;;;;;;;4.57;2.72;;;;;;;;;;4932518;28;20036;-79
2023/06/16 14:22:36;;;;;;;5.00;2.85;;;;;;;;;;4916807;29;20063;-78
2023/06/16 14:25:06;;;;;;;4.72;3.10;;;;;;;;;;4916006;28;20442;-76
2023/06/16 14:27:32;;;;;;;5.45;3.15;;;;;;;;;;4909390;28;21153;-77
2023/06/16 14:30:01;;;;;;;4.00;2.58;;;;;;;;;;4917155;28;20166;-78
2023/06/16 14:32:26;;;;;;;4.90;2.90;;;;;;;;;;4902081;28;20055;-78
2023/06/16 14:34:51;;;;;;;7.97;3.58;;;;;;;;;;4928666;28;20055;-80
2023/06/16 14:37:17;;;;;;;6.00;2.88;;;;;;;;;;4914820;28;20048;-78
2023/06/16 14:39:42;;;;;;;5.78;3.05;;;;;;;;;;4917695;28;20468;-78
2023/06/16 14:42:08;;;;;;;5.05;3.08;;;;;;;;;;4905736;29;20108;-79
2023/06/16 14:44:33;;;;;;;4.47;2.95;;;;;;;;;;4933812;28;20037;-78